Airfield :
LOGIN :

Register | Disclaimer

   EN    FR    IT 

 










Legend :    VFR   Marginal VFR   IFR   Intensive IFR   Very Intensive IFR
Visi :
Ceiling :
>= 8 km
>= 3000ft
5 to 8 km
1000 to 3000 ft
1500m to 5 km
500 to 1000 ft
800 to 1500m
200 to 500 ft
< 800m
< 200 ft
Symbols :   Thunderstorms  Fog  Heavy snow  Heavy precipitations  Wind > 20 kt
SIGMETs :     Misc.  Thunderstorms  Icing  Turbulence  Mountain Waves  Volcanic Ashes







- Airport Elevation : 755 ft
- IATA code : DRS


EDDC - Dresden Klotzsche

CURRENT METAR :
  • 301620Z 08019KT CAVOK 13/01 Q1015 TEMPO 09015G25KT

EXPIRED METARs :
  • 301550Z 09017KT 060V120 CAVOK 13/02 Q1015 TEMPO 09015G25KT
  • 301520Z 08018KT CAVOK 13/01 Q1016 TEMPO 09015G25KT
  • 301450Z 09017KT CAVOK 14/01 Q1016 TEMPO 09015G25KT
  • 301420Z 08016KT 050V110 CAVOK 14/01 Q1016 TEMPO 09015G25KT
  • 301350Z 08014KT CAVOK 14/00 Q1016 TEMPO 09015G25KT

TAF TAF EDDC
Valid from the 30 at 12:00 until the 01 at 12:00 UTC


301100Z 3012/0112 10012KT CAVOK
PROB30
TEMPO 3012/3019 10015G25KT
BECMG 0108/0110 10015G25KT
No reported NOTAMs for that airfield.



MET'MAP, your aeronautical weather chart ! - Copyright ORBIFLY December 2007 - Disclaimer

ORBIFLY MET'MAP TEAM :

Programming & Development : Alexandra Zaïnal
Concept & Development : Baudouin d'Aumeries
Co-Development & Prog : Marc-Olivier Méhu
Technical & hardware support : Manuel Goepfert

Contact : metmap@orbifly.com




SOURCES & CREDITS :

   NOAA